createdAt,value
2017-06-12T00:00:47.900Z,16.80
2017-06-12T00:03:14.924Z,16.80
2017-06-12T00:05:41.912Z,16.80
2017-06-12T00:08:09.715Z,16.70
2017-06-12T00:10:36.699Z,16.70
2017-06-12T00:13:03.716Z,16.70
2017-06-12T00:15:30.705Z,16.80
2017-06-12T00:17:57.744Z,16.80
2017-06-12T00:20:24.776Z,16.70
2017-06-12T00:22:51.771Z,16.60
2017-06-12T00:25:18.813Z,16.60
2017-06-12T00:27:46.571Z,16.60
2017-06-12T00:30:14.367Z,16.60
2017-06-12T00:32:41.458Z,16.60
2017-06-12T00:35:08.461Z,16.60
2017-06-12T00:37:35.469Z,16.60
2017-06-12T00:40:03.215Z,16.40
2017-06-12T00:42:30.230Z,16.40
2017-06-12T00:44:57.215Z,16.30
2017-06-12T00:47:24.231Z,16.40
2017-06-12T00:49:51.235Z,16.50
2017-06-12T00:52:18.272Z,16.40
2017-06-12T00:54:46.024Z,16.40
2017-06-12T00:57:13.780Z,16.30
2017-06-12T00:59:40.796Z,16.30
2017-06-12T01:02:07.780Z,16.30
2017-06-12T01:04:34.794Z,16.30
2017-06-12T01:07:01.776Z,16.30
2017-06-12T01:09:29.587Z,16.10
2017-06-12T01:11:56.571Z,16.10
2017-06-12T01:14:23.580Z,16.20
2017-06-12T01:16:50.559Z,16.20
2017-06-12T01:19:17.583Z,16.10
2017-06-12T01:21:56.632Z,16.00
2017-06-12T01:24:23.647Z,15.90
2017-06-12T01:26:50.667Z,15.90
2017-06-12T01:29:17.708Z,15.80
2017-06-12T01:31:44.703Z,15.80
2017-06-12T01:34:11.744Z,15.70
2017-06-12T01:36:38.759Z,15.70
2017-06-12T01:39:05.763Z,15.60
2017-06-12T01:41:32.789Z,15.60
2017-06-12T01:43:59.800Z,15.60
2017-06-12T01:46:26.856Z,15.50
2017-06-12T01:48:53.861Z,15.50
2017-06-12T01:51:21.639Z,15.40
2017-06-12T01:53:48.671Z,15.40
2017-06-12T01:56:15.692Z,15.40
2017-06-12T01:58:42.679Z,15.40
2017-06-12T02:01:10.473Z,15.30
2017-06-12T02:03:37.467Z,15.30
2017-06-12T02:06:04.487Z,15.40
2017-06-12T02:08:31.479Z,15.40
2017-06-12T02:10:59.260Z,15.30
2017-06-12T02:13:26.244Z,15.30
2017-06-12T02:15:53.259Z,15.20
2017-06-12T02:18:20.263Z,15.10
2017-06-12T02:20:48.047Z,15.10
2017-06-12T02:23:15.796Z,15.10
2017-06-12T02:25:43.579Z,15.10
2017-06-12T02:28:10.563Z,15.00
2017-06-12T02:30:37.599Z,15.10
2017-06-12T02:33:04.631Z,15.10
2017-06-12T02:35:31.622Z,15.10
2017-06-12T02:37:58.632Z,15.20
2017-06-12T02:40:25.663Z,15.10
2017-06-12T02:42:52.659Z,15.00
2017-06-12T02:45:19.647Z,15.00
2017-06-12T02:47:47.432Z,14.80
2017-06-12T02:50:14.421Z,14.90
2017-06-12T02:52:41.543Z,14.80
2017-06-12T02:55:08.535Z,14.90
2017-06-12T02:57:36.311Z,14.80
2017-06-12T03:00:04.064Z,14.80
2017-06-12T03:02:31.835Z,14.70
2017-06-12T03:04:59.589Z,14.80
2017-06-12T03:07:27.383Z,14.70
2017-06-12T03:10:15.243Z,14.70
2017-06-12T03:12:42.296Z,14.80
2017-06-12T03:15:09.287Z,14.70
2017-06-12T03:17:37.051Z,14.80
2017-06-12T03:20:04.844Z,14.80
2017-06-12T03:22:31.835Z,14.80
2017-06-12T03:24:59.013Z,14.90
2017-06-12T03:27:26.775Z,15.00
2017-06-12T03:29:54.541Z,15.10
2017-06-12T03:32:22.503Z,15.00
2017-06-12T03:34:50.264Z,15.00
2017-06-12T03:37:18.043Z,15.00
2017-06-12T03:39:45.823Z,15.00
2017-06-12T03:42:12.828Z,15.00
2017-06-12T03:44:39.843Z,15.00
2017-06-12T03:47:06.832Z,15.10
2017-06-12T03:49:34.620Z,15.30
2017-06-12T03:52:01.604Z,15.30
2017-06-12T03:54:28.627Z,15.40
2017-06-12T03:56:55.648Z,15.40
2017-06-12T03:59:23.606Z,15.20
2017-06-12T04:01:51.382Z,15.20
2017-06-12T04:04:19.137Z,15.30
2017-06-12T04:06:47.055Z,15.30
2017-06-12T04:09:14.058Z,15.30
2017-06-12T04:11:41.847Z,15.30
2017-06-12T04:14:08.840Z,15.30
2017-06-12T04:16:35.863Z,15.30
2017-06-12T04:19:03.001Z,15.30
2017-06-12T04:21:30.031Z,15.30
2017-06-12T04:23:57.010Z,15.40
2017-06-12T04:26:24.072Z,15.50
2017-06-12T04:28:51.086Z,15.70
2017-06-12T04:31:18.116Z,15.80
2017-06-12T04:33:45.103Z,15.70
2017-06-12T04:36:12.089Z,15.70
2017-06-12T04:38:39.871Z,15.60
2017-06-12T04:41:06.888Z,15.60
2017-06-12T04:43:34.647Z,15.70
2017-06-12T04:46:01.628Z,15.70
2017-06-12T04:48:28.641Z,15.80
2017-06-12T04:50:55.684Z,16.10
2017-06-12T04:53:22.698Z,16.40
2017-06-12T04:55:49.685Z,16.60
2017-06-12T04:58:17.464Z,16.30
2017-06-12T05:00:44.455Z,16.30
2017-06-12T05:03:11.468Z,16.10
2017-06-12T05:05:38.460Z,16.00
2017-06-12T05:08:05.452Z,16.00
2017-06-12T05:10:32.505Z,15.80
2017-06-12T05:12:59.492Z,15.80
2017-06-12T05:15:26.471Z,16.00
2017-06-12T05:17:54.259Z,16.10
2017-06-12T05:20:21.333Z,16.00
2017-06-12T05:22:48.339Z,16.20
2017-06-12T05:25:15.349Z,16.40
2017-06-12T05:27:42.340Z,16.30
2017-06-12T05:30:09.364Z,16.30
2017-06-12T05:32:37.119Z,16.70
2017-06-12T05:35:04.126Z,16.70
2017-06-12T05:37:31.171Z,16.80
2017-06-12T05:39:58.163Z,16.70
2017-06-12T05:42:25.168Z,16.70
2017-06-12T05:44:52.192Z,17.00
2017-06-12T05:47:19.186Z,17.00
2017-06-12T05:49:46.204Z,17.10
2017-06-12T05:52:13.225Z,16.90
2017-06-12T05:54:40.231Z,16.80
2017-06-12T05:57:07.227Z,16.70
2017-06-12T05:59:34.244Z,17.00
2017-06-12T06:02:01.267Z,17.20
2017-06-12T06:04:28.252Z,17.60
2017-06-12T06:06:55.268Z,17.40
2017-06-12T06:09:22.251Z,17.10
2017-06-12T06:11:49.259Z,16.80
2017-06-12T06:14:16.249Z,17.00
2017-06-12T06:16:43.292Z,17.00
2017-06-12T06:19:10.285Z,17.00
2017-06-12T06:21:37.304Z,17.20
2017-06-12T06:24:04.289Z,17.30
2017-06-12T06:26:31.327Z,17.30
2017-06-12T06:28:58.343Z,17.10
2017-06-12T06:31:25.326Z,17.20
2017-06-12T06:33:52.495Z,17.10
2017-06-12T06:36:20.244Z,17.00
2017-06-12T06:38:47.991Z,17.40
2017-06-12T06:41:15.005Z,17.30
2017-06-12T06:43:41.989Z,17.30
2017-06-12T06:46:09.001Z,17.60
2017-06-12T06:48:35.994Z,17.60
2017-06-12T06:51:03.771Z,17.70
2017-06-12T06:53:31.519Z,17.30
2017-06-12T06:55:59.336Z,16.90
2017-06-12T06:58:26.325Z,16.90
2017-06-12T07:00:53.304Z,17.10
2017-06-12T07:03:20.319Z,17.40
2017-06-12T07:05:47.324Z,17.20
2017-06-12T07:08:14.332Z,17.30
2017-06-12T07:10:41.324Z,17.30
2017-06-12T07:13:08.331Z,17.30
2017-06-12T07:15:35.315Z,17.30
2017-06-12T07:18:02.354Z,18.00
2017-06-12T07:20:29.375Z,18.20
2017-06-12T07:22:56.407Z,17.60
2017-06-12T07:25:24.155Z,17.60
2017-06-12T07:27:51.903Z,17.40
2017-06-12T07:30:18.921Z,17.40
2017-06-12T07:32:45.910Z,16.90
2017-06-12T07:35:13.080Z,17.00
2017-06-12T07:37:40.068Z,17.60
2017-06-12T07:40:07.104Z,17.80
2017-06-12T07:42:34.115Z,17.90
2017-06-12T07:45:01.896Z,18.10
2017-06-12T07:47:28.884Z,18.10
2017-06-12T07:49:55.919Z,17.80
2017-06-12T07:52:22.929Z,17.70
2017-06-12T07:54:49.943Z,17.60
2017-06-12T07:57:16.927Z,17.70
2017-06-12T07:59:43.996Z,18.20
2017-06-12T08:02:10.988Z,18.40
2017-06-12T08:04:38.791Z,17.90
2017-06-12T08:07:05.799Z,17.80
2017-06-12T08:09:32.788Z,17.60
2017-06-12T08:11:59.803Z,17.40
2017-06-12T08:14:27.568Z,17.70
2017-06-12T08:16:55.369Z,17.70
2017-06-12T08:19:22.356Z,17.60
2017-06-12T08:21:49.347Z,17.10
2017-06-12T08:24:16.361Z,17.20
2017-06-12T08:26:44.124Z,17.90
2017-06-12T08:29:11.939Z,18.10
2017-06-12T08:31:38.920Z,18.10
2017-06-12T08:34:05.968Z,18.50
2017-06-12T08:36:32.951Z,18.00
2017-06-12T08:38:59.932Z,17.90
2017-06-12T08:41:26.958Z,18.50
2017-06-12T08:43:53.943Z,18.80
2017-06-12T08:46:20.957Z,18.40
2017-06-12T08:48:47.943Z,18.20
2017-06-12T08:51:14.973Z,17.80
2017-06-12T08:53:42.000Z,18.10
2017-06-12T08:56:08.980Z,18.30
2017-06-12T08:58:35.999Z,18.30
2017-06-12T09:01:03.029Z,18.30
2017-06-12T09:03:30.011Z,18.50
2017-06-12T09:05:56.999Z,18.10
2017-06-12T09:08:24.011Z,18.10
2017-06-12T09:10:51.031Z,17.90
2017-06-12T09:13:18.016Z,17.80
2017-06-12T09:15:45.980Z,17.40
2017-06-12T09:18:13.736Z,17.50
2017-06-12T09:20:40.724Z,17.50
2017-06-12T09:23:08.575Z,17.90
2017-06-12T09:25:36.364Z,17.60
2017-06-12T09:28:03.345Z,17.60
2017-06-12T09:30:30.328Z,17.70
2017-06-12T09:32:58.104Z,17.80
2017-06-12T09:35:25.180Z,17.80
2017-06-12T09:37:52.225Z,17.80
2017-06-12T09:40:19.220Z,17.90
2017-06-12T09:42:46.980Z,18.00
2017-06-12T09:45:14.023Z,18.00
2017-06-12T09:47:41.002Z,17.70
2017-06-12T09:50:08.090Z,17.60
2017-06-12T09:52:35.114Z,17.40
2017-06-12T09:55:02.103Z,17.30
2017-06-12T09:57:29.135Z,17.70
2017-06-12T09:59:56.124Z,17.70
2017-06-12T10:02:23.163Z,18.10
2017-06-12T10:04:50.924Z,17.70
2017-06-12T10:07:18.704Z,17.50
2017-06-12T10:09:45.745Z,17.50
2017-06-12T10:12:12.739Z,17.90
2017-06-12T10:14:39.757Z,18.50
2017-06-12T10:17:06.740Z,19.00
2017-06-12T10:19:33.766Z,19.20
2017-06-12T10:22:00.767Z,18.60
2017-06-12T10:27:01.743Z,17.70
2017-06-12T10:29:28.817Z,17.50
2017-06-12T10:31:55.965Z,17.50
2017-06-12T10:34:22.947Z,17.80
2017-06-12T10:36:50.205Z,18.50
2017-06-12T10:39:17.987Z,18.20
2017-06-12T10:41:44.980Z,18.10
2017-06-12T10:44:12.000Z,18.10
2017-06-12T10:46:38.984Z,18.20
2017-06-12T10:49:06.011Z,18.10
2017-06-12T10:51:32.999Z,17.80
2017-06-12T10:54:00.020Z,18.00
2017-06-12T10:56:27.007Z,17.80
2017-06-12T10:58:54.787Z,18.30
2017-06-12T11:01:21.779Z,18.30
2017-06-12T11:03:48.795Z,17.70
2017-06-12T11:06:15.785Z,17.80
2017-06-12T11:08:42.792Z,17.70
2017-06-12T11:11:10.907Z,17.80
2017-06-12T11:13:37.923Z,17.70
2017-06-12T11:16:04.912Z,17.80
2017-06-12T11:18:32.721Z,18.20
2017-06-12T11:20:59.714Z,18.20
2017-06-12T11:23:26.700Z,18.00
2017-06-12T11:25:53.765Z,17.60
2017-06-12T11:28:20.751Z,17.10
2017-06-12T11:30:47.763Z,17.40
2017-06-12T11:33:14.756Z,17.60
2017-06-12T11:35:42.565Z,17.60
2017-06-12T11:38:09.563Z,17.60
2017-06-12T11:40:38.354Z,17.10
2017-06-12T11:43:06.167Z,17.10
2017-06-12T11:45:33.165Z,17.20
2017-06-12T11:48:00.949Z,17.80
2017-06-12T11:50:27.951Z,17.80
2017-06-12T11:52:54.988Z,17.70
2017-06-12T11:55:22.001Z,17.90
2017-06-12T11:57:48.990Z,17.60
2017-06-12T12:00:16.088Z,17.30
2017-06-12T12:02:43.075Z,17.10
2017-06-12T12:05:10.065Z,17.20
2017-06-12T12:07:37.085Z,17.10
2017-06-12T12:10:04.074Z,17.00
2017-06-12T12:12:31.095Z,16.90
2017-06-12T12:14:58.847Z,16.90
2017-06-12T12:17:25.883Z,16.90
2017-06-12T12:19:52.865Z,17.20
2017-06-12T12:22:19.861Z,17.10
2017-06-12T12:24:46.904Z,17.00
2017-06-12T12:27:13.892Z,17.30
2017-06-12T12:29:41.680Z,17.50
2017-06-12T12:32:08.667Z,17.40
2017-06-12T12:34:35.689Z,17.20
2017-06-12T12:37:02.677Z,17.90
2017-06-12T12:39:30.460Z,18.10
2017-06-12T12:41:58.563Z,18.10
2017-06-12T12:44:25.592Z,18.10
2017-06-12T12:46:52.579Z,18.10
2017-06-12T12:49:19.576Z,18.20
2017-06-12T12:51:46.620Z,18.50
2017-06-12T12:54:13.641Z,18.20
2017-06-12T12:56:40.752Z,18.60
2017-06-12T12:59:07.948Z,19.30
2017-06-12T13:01:35.811Z,19.10
2017-06-12T13:04:03.564Z,18.30
2017-06-12T13:06:30.572Z,18.30
2017-06-12T13:08:57.568Z,18.10
2017-06-12T13:11:25.359Z,17.70
2017-06-12T13:13:52.351Z,17.70
2017-06-12T13:16:19.415Z,17.40
2017-06-12T13:18:46.404Z,17.40
2017-06-12T13:21:13.395Z,17.90
2017-06-12T13:23:40.418Z,18.40
2017-06-12T13:26:07.446Z,18.10
2017-06-12T13:28:34.440Z,18.40
2017-06-12T13:31:01.507Z,18.10
2017-06-12T13:33:29.299Z,17.60
2017-06-12T13:35:56.337Z,17.60
2017-06-12T13:38:23.360Z,18.10
2017-06-12T13:40:51.229Z,18.30
2017-06-12T13:43:18.268Z,18.30
2017-06-12T13:45:45.297Z,17.70
2017-06-12T13:48:12.332Z,19.20
2017-06-12T13:50:39.320Z,19.20
2017-06-12T13:53:07.136Z,17.40
2017-06-12T13:55:34.119Z,17.40
2017-06-12T13:58:01.136Z,17.40
2017-06-12T14:00:28.153Z,18.60
2017-06-12T14:02:55.150Z,18.30
2017-06-12T14:05:22.356Z,17.90
2017-06-12T14:07:49.372Z,18.50
2017-06-12T14:10:16.388Z,19.70
2017-06-12T14:12:43.389Z,20.30
2017-06-12T14:15:10.443Z,20.50
2017-06-12T14:17:37.471Z,19.00
2017-06-12T14:20:04.517Z,18.00
2017-06-12T14:22:31.516Z,18.10
2017-06-12T14:24:58.511Z,19.40
2017-06-12T14:27:25.519Z,19.00
2017-06-12T14:29:52.517Z,17.90
2017-06-12T14:32:19.535Z,17.70
2017-06-12T14:34:47.292Z,20.20
2017-06-12T14:37:15.119Z,18.80
2017-06-12T14:39:42.109Z,18.80
2017-06-12T14:42:09.867Z,17.70
2017-06-12T14:44:36.921Z,17.60
2017-06-12T14:47:03.918Z,17.60
2017-06-12T14:49:30.947Z,18.60
2017-06-12T14:51:57.931Z,17.50
2017-06-12T14:54:24.976Z,17.40
2017-06-12T14:56:51.968Z,17.20
2017-06-12T14:59:18.980Z,17.60
2017-06-12T15:01:46.771Z,17.50
2017-06-12T15:04:13.751Z,17.50
2017-06-12T15:06:40.769Z,17.20
2017-06-12T15:09:07.785Z,16.90
2017-06-12T15:11:35.584Z,16.70
2017-06-12T15:14:02.571Z,16.70
2017-06-12T15:16:29.701Z,17.00
2017-06-12T15:18:56.691Z,17.20
2017-06-12T15:21:24.663Z,18.00
2017-06-12T15:23:52.451Z,17.50
2017-06-12T15:26:19.438Z,17.50
2017-06-12T15:28:46.448Z,17.10
2017-06-12T15:31:13.468Z,17.00
2017-06-12T15:33:41.256Z,16.70
2017-06-12T15:36:08.252Z,16.70
2017-06-12T15:38:35.274Z,16.60
2017-06-12T15:41:02.350Z,16.40
2017-06-12T15:43:29.371Z,16.30
2017-06-12T15:45:56.355Z,16.10
2017-06-12T15:48:23.391Z,16.10
2017-06-12T15:50:50.405Z,15.80
2017-06-12T15:53:17.454Z,15.30
2017-06-12T15:55:44.447Z,15.10
2017-06-12T15:58:12.243Z,15.40
2017-06-12T16:00:40.295Z,15.40
2017-06-12T16:03:08.096Z,15.30
2017-06-12T16:05:35.156Z,15.30
2017-06-12T16:08:02.196Z,15.30
2017-06-12T16:10:29.235Z,15.30
2017-06-12T16:12:56.224Z,15.50
2017-06-12T16:15:23.242Z,15.70
2017-06-12T16:17:50.244Z,16.00
2017-06-12T16:20:17.257Z,16.40
2017-06-12T16:22:44.251Z,16.30
2017-06-12T16:25:11.242Z,16.20
2017-06-12T16:27:38.256Z,16.00
2017-06-12T16:30:05.251Z,16.00
2017-06-12T16:32:32.291Z,16.00
2017-06-12T16:34:59.288Z,16.10
2017-06-12T16:37:26.335Z,16.10
2017-06-12T16:39:53.348Z,16.10
2017-06-12T16:42:20.355Z,16.00
2017-06-12T16:44:47.385Z,16.00
2017-06-12T16:47:14.377Z,15.90
2017-06-12T16:49:41.395Z,15.80
2017-06-12T16:52:08.394Z,16.00
2017-06-12T16:54:35.475Z,15.80
2017-06-12T16:57:02.471Z,15.50
2017-06-12T16:59:30.302Z,15.70
2017-06-12T17:01:57.304Z,15.70
2017-06-12T17:04:24.296Z,15.70
2017-06-12T17:06:51.315Z,15.60
2017-06-12T17:09:18.307Z,15.70
2017-06-12T17:11:45.334Z,15.70
2017-06-12T17:14:12.324Z,15.50
2017-06-12T17:16:39.372Z,15.50
2017-06-12T17:19:07.154Z,15.60
2017-06-12T17:21:34.165Z,15.60
2017-06-12T17:24:01.188Z,15.70
2017-06-12T17:26:28.172Z,15.80
2017-06-12T17:28:55.955Z,15.60
2017-06-12T17:31:22.944Z,15.60
2017-06-12T17:33:49.992Z,15.40
2017-06-12T17:36:17.039Z,15.40
2017-06-12T17:38:44.061Z,15.40
2017-06-12T17:41:11.080Z,15.50
2017-06-12T17:43:38.131Z,15.50
2017-06-12T17:46:05.155Z,15.40
2017-06-12T17:48:32.915Z,15.40
2017-06-12T17:51:00.730Z,15.50
2017-06-12T17:53:27.727Z,15.40
2017-06-12T17:55:55.524Z,15.30
2017-06-12T17:58:22.537Z,15.30
2017-06-12T18:00:50.322Z,15.20
2017-06-12T18:03:17.313Z,15.20
2017-06-12T18:05:44.352Z,15.20
2017-06-12T18:08:11.339Z,15.10
2017-06-12T18:10:38.344Z,15.10
2017-06-12T18:13:05.356Z,15.00
2017-06-12T18:15:32.380Z,15.10
2017-06-12T18:18:00.163Z,15.10
2017-06-12T18:20:27.159Z,15.10
2017-06-12T18:22:54.184Z,15.00
2017-06-12T18:25:21.200Z,15.00
2017-06-12T18:27:48.347Z,15.00
2017-06-12T18:30:15.340Z,15.00
2017-06-12T18:32:42.384Z,15.00
2017-06-12T18:35:09.420Z,14.90
2017-06-12T18:37:36.462Z,14.80
2017-06-12T18:40:03.514Z,14.80
2017-06-12T18:42:30.531Z,14.70
2017-06-12T18:44:57.520Z,14.80
2017-06-12T18:47:24.536Z,14.80
2017-06-12T18:49:51.533Z,14.80
2017-06-12T18:52:18.564Z,14.80
2017-06-12T18:54:45.559Z,14.80
2017-06-12T18:57:12.640Z,14.70
2017-06-12T18:59:39.661Z,14.70
2017-06-12T19:02:07.350Z,14.60
2017-06-12T19:04:34.366Z,14.70
2017-06-12T19:07:03.221Z,14.60
2017-06-12T19:09:30.472Z,14.70
2017-06-12T19:11:57.493Z,14.60
2017-06-12T19:14:24.549Z,14.60
2017-06-12T19:16:51.572Z,14.60
2017-06-12T19:19:18.601Z,14.60
2017-06-12T19:21:45.590Z,14.60
2017-06-12T19:24:12.651Z,14.60
2017-06-12T19:26:39.662Z,14.60
2017-06-12T19:29:06.690Z,14.50
2017-06-12T19:31:33.684Z,14.50
2017-06-12T19:34:00.707Z,14.50
2017-06-12T19:36:27.706Z,14.40
2017-06-12T19:38:54.768Z,14.40
2017-06-12T19:41:21.793Z,14.50
2017-06-12T19:43:49.555Z,14.40
2017-06-12T19:46:17.474Z,14.40
2017-06-12T19:48:44.472Z,14.40
2017-06-12T19:51:12.232Z,14.50
2017-06-12T19:53:40.021Z,14.40
2017-06-12T19:56:07.019Z,14.40
2017-06-12T19:58:34.048Z,14.40
2017-06-12T20:01:01.036Z,14.40
2017-06-12T20:03:28.849Z,14.40
2017-06-12T20:05:55.846Z,14.40
2017-06-12T20:08:23.643Z,14.40
2017-06-12T20:10:50.632Z,14.40
2017-06-12T20:13:17.632Z,14.40
2017-06-12T20:15:44.660Z,14.40
2017-06-12T20:18:11.664Z,14.50
2017-06-12T20:20:38.685Z,14.40
2017-06-12T20:23:05.679Z,14.40
2017-06-12T20:25:33.465Z,14.40
2017-06-12T20:28:00.467Z,14.40
2017-06-12T20:30:27.498Z,14.40
2017-06-12T20:32:54.497Z,14.50
2017-06-12T20:35:22.271Z,14.40
2017-06-12T20:37:49.256Z,14.40
2017-06-12T20:40:16.639Z,14.40
2017-06-12T20:42:43.619Z,14.50
2017-06-12T20:45:10.600Z,14.40
2017-06-12T20:47:37.640Z,14.40
2017-06-12T20:50:04.627Z,14.40
2017-06-12T20:52:31.656Z,14.40
2017-06-12T20:54:58.680Z,14.40
2017-06-12T20:57:25.663Z,14.40
2017-06-12T20:59:52.676Z,14.40
2017-06-12T21:02:19.663Z,14.40
2017-06-12T21:04:47.451Z,14.40
2017-06-12T21:07:14.432Z,14.40
2017-06-12T21:09:41.473Z,14.30
2017-06-12T21:12:08.555Z,14.30
2017-06-12T21:14:35.535Z,14.40
2017-06-12T21:17:02.559Z,14.40
2017-06-12T21:19:30.351Z,14.30
2017-06-12T21:21:57.331Z,14.30
2017-06-12T21:24:24.340Z,14.40
2017-06-12T21:26:51.327Z,14.40
2017-06-12T21:29:18.332Z,14.40
2017-06-12T21:31:45.312Z,14.40
2017-06-12T21:34:12.324Z,14.40
2017-06-12T21:36:39.307Z,14.40
2017-06-12T21:39:06.319Z,14.40
2017-06-12T21:41:33.299Z,14.40
2017-06-12T21:44:00.311Z,14.40
2017-06-12T21:46:27.290Z,14.40
2017-06-12T21:48:54.319Z,14.40
2017-06-12T21:51:21.315Z,14.40
2017-06-12T21:53:48.299Z,14.40
2017-06-12T21:56:15.460Z,14.40
2017-06-12T21:58:42.439Z,14.40
2017-06-12T22:01:09.456Z,14.40
2017-06-12T22:03:36.438Z,14.30
2017-06-12T22:06:03.448Z,14.30
2017-06-12T22:08:30.437Z,14.30
2017-06-12T22:10:57.452Z,14.40
2017-06-12T22:13:24.439Z,14.30
2017-06-12T22:15:52.219Z,14.30
2017-06-12T22:18:19.199Z,14.30
2017-06-12T22:20:46.287Z,14.30
2017-06-12T22:23:13.391Z,14.30
2017-06-12T22:25:40.371Z,14.30
2017-06-12T22:28:07.384Z,14.30
2017-06-12T22:30:34.441Z,14.30
2017-06-12T22:33:01.518Z,14.30
2017-06-12T22:35:29.347Z,14.20
2017-06-12T22:37:56.363Z,14.20
2017-06-12T22:40:23.344Z,14.10
2017-06-12T22:42:50.425Z,14.10
2017-06-12T22:45:18.198Z,14.20
2017-06-12T22:47:45.953Z,14.20
2017-06-12T22:50:13.064Z,14.20
2017-06-12T22:52:40.044Z,14.20
2017-06-12T22:55:07.082Z,14.20
2017-06-12T22:57:34.144Z,14.20
2017-06-12T23:00:01.133Z,14.20
2017-06-12T23:02:28.143Z,14.20
2017-06-12T23:04:56.389Z,14.20
2017-06-12T23:07:24.196Z,14.20
2017-06-12T23:09:51.283Z,14.20
2017-06-12T23:12:18.315Z,14.20
2017-06-12T23:14:45.325Z,14.30
2017-06-12T23:17:13.075Z,14.20
2017-06-12T23:19:40.087Z,14.20
2017-06-12T23:22:07.160Z,14.30
2017-06-12T23:24:34.223Z,14.30
2017-06-12T23:27:01.206Z,14.20
2017-06-12T23:29:28.373Z,14.30
2017-06-12T23:31:56.215Z,14.30
2017-06-12T23:34:23.199Z,14.20
2017-06-12T23:36:50.233Z,14.20
2017-06-12T23:39:17.217Z,14.20
2017-06-12T23:41:44.255Z,14.30
2017-06-12T23:44:11.239Z,14.20
2017-06-12T23:46:38.255Z,14.20
2017-06-12T23:49:05.284Z,14.20
2017-06-12T23:51:32.274Z,14.20
2017-06-12T23:53:59.288Z,14.20
2017-06-12T23:56:26.307Z,14.20
2017-06-12T23:58:53.287Z,14.20
